Time;durP1;ratioP1;P1;durP2;ratioP2;P2;SDS_P1;SDS_P2;PMS_P1;PMS_P2;Temp;Humidity;BMP_temperature;BMP_pressure;BME280_temperature;BME280_humidity;BME280_pressure;Samples;Min_cycle;Max_cycle;Signal;HPM_P1;HPM_P2
2022/05/03 03:56:50;;;;;;;9.80;6.60;;;;;;;13.30;68.79;100381.44;5605592;31;82378;-56
2022/05/03 03:59:55;;;;;;;8.60;6.50;;;;;;;13.30;68.79;100381.44;5583749;31;34101;-55
2022/05/03 04:02:57;;;;;;;9.55;5.80;;;;;;;12.72;70.52;100384.59;5583493;31;34312;-55
2022/05/03 04:06:00;;;;;;;10.82;6.55;;;;;;;12.89;69.99;100382.13;5583374;31;33715;-55
2022/05/03 04:09:02;;;;;;;9.10;6.62;;;;;;;12.88;70.21;100383.22;5583822;32;33644;-55
2022/05/03 04:12:05;;;;;;;11.15;6.95;;;;;;;12.85;70.37;100381.94;5583621;32;33633;-55
2022/05/03 04:15:08;;;;;;;8.73;6.12;;;;;;;13.01;70.03;100385.13;5584970;31;33722;-55
2022/05/03 04:18:16;;;;;;;10.05;6.55;;;;;;;12.92;70.43;100381.56;5603017;31;33663;-56
2022/05/03 04:21:18;;;;;;;8.95;6.37;;;;;;;12.89;70.27;100385.63;5602848;31;33643;-55
2022/05/03 04:24:21;;;;;;;9.98;6.68;;;;;;;12.93;70.35;100380.44;5603048;31;33712;-56
2022/05/03 04:27:24;;;;;;;10.45;6.60;;;;;;;13.02;70.31;100383.28;5595278;31;34338;-55
2022/05/03 04:30:26;;;;;;;9.88;7.07;;;;;;;13.21;70.39;100385.87;5583514;31;33336;-56
2022/05/03 04:33:28;;;;;;;9.20;7.30;;;;;;;13.33;69.91;100386.22;5583184;32;33708;-56
2022/05/03 04:36:32;;;;;;;11.55;7.32;;;;;;;13.34;70.30;100382.44;5582506;31;34376;-55
2022/05/03 04:39:36;;;;;;;8.85;7.37;;;;;;;13.39;70.30;100385.03;5583425;32;33751;-55
2022/05/03 04:42:39;;;;;;;14.00;7.20;;;;;;;13.44;70.40;100393.00;5582731;31;33871;-56
2022/05/03 04:45:41;;;;;;;13.23;8.23;;;;;;;13.61;70.01;100392.44;5582873;31;34300;-55
2022/05/03 04:48:44;;;;;;;12.93;8.20;;;;;;;13.61;70.46;100393.22;5582880;31;34386;-56
2022/05/03 04:51:46;;;;;;;16.80;8.43;;;;;;;13.54;70.42;100392.00;5583088;32;33656;-56
2022/05/03 04:54:49;;;;;;;12.43;7.32;;;;;;;13.62;70.69;100391.31;5581705;32;33730;-56
2022/05/03 04:57:53;;;;;;;11.95;7.87;;;;;;;13.84;69.79;100395.97;5582376;31;33674;-56
2022/05/03 05:00:55;;;;;;;13.40;7.60;;;;;;;13.98;69.81;100399.47;5579964;31;33572;-55
2022/05/03 05:03:57;;;;;;;12.70;7.40;;;;;;;14.04;69.78;100400.97;5581600;31;34331;-56
2022/05/03 05:07:00;;;;;;;11.48;8.18;;;;;;;14.13;69.53;100392.16;5574168;32;33662;-56
2022/05/03 05:13:25;;;;;;;12.27;7.75;;;;;;;14.43;68.24;100399.53;5568370;32;33240;-55
2022/05/03 05:16:27;;;;;;;9.10;8.07;;;;;;;14.64;68.09;100401.81;5567112;32;33627;-56
2022/05/03 05:19:30;;;;;;;11.73;8.35;;;;;;;14.84;65.86;100393.22;5569136;32;33706;-55
2022/05/03 05:22:32;;;;;;;14.82;8.77;;;;;;;15.08;64.36;100395.56;5568883;32;33799;-56
2022/05/03 05:25:35;;;;;;;12.90;8.75;;;;;;;15.27;64.74;100382.63;5566893;32;33632;-55
2022/05/03 05:28:37;;;;;;;12.63;8.98;;;;;;;15.45;63.74;100385.41;5569281;32;33924;-55
2022/05/03 05:31:39;;;;;;;15.82;8.57;;;;;;;15.62;60.99;100393.56;5568927;32;33273;-55
2022/05/03 05:34:41;;;;;;;11.95;8.43;;;;;;;15.81;59.55;100396.03;5557439;32;33637;-55
2022/05/03 05:37:44;;;;;;;11.52;8.70;;;;;;;15.91;61.19;100387.62;5559082;32;34304;-55
2022/05/03 05:40:47;;;;;;;14.93;9.05;;;;;;;16.09;58.63;100388.47;5568231;32;33403;-56
2022/05/03 05:43:50;;;;;;;19.37;9.45;;;;;;;16.23;60.01;100392.94;5568273;32;33695;-55
2022/05/03 05:46:52;;;;;;;14.18;9.15;;;;;;;16.26;59.04;100393.09;5569168;32;33609;-56
2022/05/03 05:49:55;;;;;;;14.55;9.35;;;;;;;16.41;58.77;100397.22;5568309;32;33238;-56
2022/05/03 05:56:18;;;;;;;13.27;8.45;;;;;;;16.61;58.47;100390.34;5566380;32;34356;-56
2022/05/03 05:59:21;;;;;;;13.00;8.93;;;;;;;16.59;56.65;100387.19;5567965;32;34284;-55
2022/05/03 06:02:23;;;;;;;13.60;8.52;;;;;;;16.68;55.88;100391.44;5567354;32;33560;-56
2022/05/03 06:05:27;;;;;;;12.45;8.45;;;;;;;16.74;56.17;100386.66;5557457;32;33683;-55
2022/05/03 06:08:29;;;;;;;10.40;8.70;;;;;;;16.96;56.97;100390.34;5551505;32;33591;-55
2022/05/03 06:11:31;;;;;;;14.07;9.45;;;;;;;17.11;54.64;100384.38;5567950;32;33694;-55
2022/05/03 06:14:33;;;;;;;16.00;9.15;;;;;;;17.31;53.03;100397.22;5559219;32;34444;-55
2022/05/03 06:17:36;;;;;;;15.52;10.52;;;;;;;17.46;52.19;100392.38;5559554;32;33561;-55
2022/05/03 06:20:38;;;;;;;11.55;10.20;;;;;;;17.48;53.33;100393.66;5568484;32;33644;-55
2022/05/03 06:23:47;;;;;;;20.10;11.98;;;;;;;17.66;60.07;100396.28;5568794;32;33684;-56
2022/05/03 06:26:49;;;;;;;13.98;10.85;;;;;;;17.72;55.78;100395.75;5567466;31;33892;-56
2022/05/03 06:29:51;;;;;;;15.93;11.82;;;;;;;17.91;56.76;100394.56;5568487;32;33925;-55
2022/05/03 06:32:55;;;;;;;13.88;11.10;;;;;;;17.93;53.87;100400.44;5568193;32;34364;-56
2022/05/03 06:35:57;;;;;;;20.83;12.15;;;;;;;17.83;53.05;100402.41;5568421;32;34255;-56
2022/05/03 06:38:59;;;;;;;14.15;11.18;;;;;;;17.88;54.79;100393.31;5567796;32;33468;-56
2022/05/03 06:42:06;;;;;;;17.87;10.38;;;;;;;17.91;53.63;100397.25;5566534;32;33719;-56
2022/05/03 06:45:09;;;;;;;;;;;;;;;18.09;52.91;100401.47;5555573;32;33806;-55
2022/05/03 06:48:18;;;;;;;16.67;9.95;;;;;;;18.08;51.10;100392.53;5567792;32;34618;-55
2022/05/03 06:51:20;;;;;;;15.27;9.73;;;;;;;18.21;50.70;100393.41;5568362;32;33701;-55
2022/05/03 06:54:23;;;;;;;13.93;9.25;;;;;;;18.17;50.67;100394.38;5568636;32;33331;-56
2022/05/03 06:57:25;;;;;;;15.32;9.98;;;;;;;18.18;49.29;100390.53;5567708;32;33292;-55
2022/05/03 07:00:27;;;;;;;17.00;9.77;;;;;;;18.18;49.58;100393.25;5567594;32;33651;-55
2022/05/03 07:03:29;;;;;;;18.67;8.98;;;;;;;18.12;49.64;100391.88;5566773;32;33319;-56
2022/05/03 07:06:32;;;;;;;15.48;8.38;;;;;;;18.17;48.33;100388.94;5566730;32;33689;-55
2022/05/03 07:09:34;;;;;;;15.77;8.70;;;;;;;18.15;49.44;100383.88;5554157;32;33331;-56
2022/05/03 07:12:38;;;;;;;11.38;9.15;;;;;;;18.23;48.77;100393.06;5549138;32;33591;-56
2022/05/03 07:15:40;;;;;;;13.88;8.55;;;;;;;18.36;49.25;100391.22;5564349;32;33285;-56
2022/05/03 07:22:45;;;;;;;12.10;6.75;;;;;;;18.61;50.17;100397.53;5548768;32;33596;-55
2022/05/03 07:25:32;;;;;;;9.13;6.72;;;;;;;18.62;47.59;100397.19;5557185;32;33693;-56
2022/05/03 07:28:34;;;;;;;11.57;7.15;;;;;;;18.75;49.38;100398.88;5567361;32;33232;-56
2022/05/03 07:31:41;;;;;;;8.32;7.15;;;;;;;18.93;50.44;100401.41;5567441;32;33641;-56
2022/05/03 07:34:43;;;;;;;12.65;7.90;;;;;;;19.09;51.42;100401.56;5567144;32;33841;-56
2022/05/03 07:37:46;;;;;;;14.45;7.20;;;;;;;18.93;47.03;100399.47;5568061;32;33162;-56
2022/05/03 07:40:48;;;;;;;9.55;7.75;;;;;;;18.99;51.66;100400.06;5564895;32;34432;-56
2022/05/03 07:43:51;;;;;;;12.40;8.20;;;;;;;19.10;47.08;100393.06;5567904;32;33639;-56
2022/05/03 07:46:53;;;;;;;13.27;7.18;;;;;;;19.02;48.14;100396.66;5566847;32;33681;-56
2022/05/03 07:49:55;;;;;;;12.77;6.22;;;;;;;19.08;49.28;100394.53;5567583;32;34008;-56
2022/05/03 07:52:57;;;;;;;9.00;6.32;;;;;;;19.23;52.68;100388.44;5566937;32;33634;-55
2022/05/03 07:56:00;;;;;;;8.85;6.28;;;;;;;19.38;49.50;100393.22;5567546;32;33589;-57
2022/05/03 07:59:03;;;;;;;8.85;6.15;;;;;;;19.43;48.45;100392.19;5567557;32;33581;-56
2022/05/03 08:02:05;;;;;;;10.27;6.15;;;;;;;19.52;49.03;100392.09;5563969;32;33499;-56
2022/05/03 08:05:10;;;;;;;9.07;5.80;;;;;;;19.59;52.16;100384.94;5567530;32;33569;-56
2022/05/03 08:08:13;;;;;;;7.53;5.82;;;;;;;19.64;48.44;100390.19;5567225;32;33824;-56
2022/05/03 08:11:16;;;;;;;7.30;5.35;;;;;;;19.74;47.47;100385.44;5567265;32;33469;-56
2022/05/03 08:14:18;;;;;;;5.80;4.90;;;;;;;19.81;52.88;100391.88;5567209;32;34304;-55
2022/05/03 08:17:20;;;;;;;11.20;5.50;;;;;;;19.89;51.28;100390.16;5566980;32;33799;-56
2022/05/03 08:20:22;;;;;;;6.22;4.85;;;;;;;19.87;46.54;100387.78;5566038;32;33791;-56
2022/05/03 08:23:24;;;;;;;5.60;4.00;;;;;;;19.84;45.98;100387.69;5564319;32;33602;-56
2022/05/03 08:26:27;;;;;;;6.47;4.05;;;;;;;19.77;44.83;100382.81;5566190;32;33258;-53
2022/05/03 08:29:31;;;;;;;9.73;4.53;;;;;;;19.76;42.62;100385.87;5566792;32;34516;-53
2022/05/03 08:32:34;;;;;;;9.98;3.85;;;;;;;19.71;44.09;100384.97;5564876;32;34261;-53
2022/05/03 08:35:36;;;;;;;6.05;4.03;;;;;;;19.78;46.32;100381.69;5564391;32;33686;-53
2022/05/03 08:42:06;;;;;;;11.12;5.43;;;;;;;19.95;45.49;100389.56;5565737;32;33825;-53
2022/05/03 08:45:09;;;;;;;7.65;4.37;;;;;;;19.95;46.66;100388.78;5559431;32;33663;-53
2022/05/03 08:48:13;;;;;;;9.68;4.65;;;;;;;19.96;48.21;100387.62;5567347;32;33712;-53
2022/05/03 08:51:21;;;;;;;10.35;4.87;;;;;;;20.05;47.40;100384.81;5568611;32;33741;-53
2022/05/03 08:54:25;;;;;;;11.30;4.55;;;;;;;20.09;47.27;100391.91;5561589;32;33556;-53
2022/05/03 08:57:28;;;;;;;7.50;4.20;;;;;;;20.13;47.00;100381.97;5564521;32;33600;-54
2022/05/03 09:00:32;;;;;;;8.57;4.78;;;;;;;20.22;46.52;100381.00;5565270;32;33761;-53
2022/05/03 09:03:35;;;;;;;17.30;4.78;;;;;;;20.33;45.19;100377.47;5568199;32;33693;-54
2022/05/03 09:06:46;;;;;;;6.43;4.20;;;;;;;20.43;49.23;100387.09;5565041;32;33040;-53
2022/05/03 09:09:51;;;;;;;5.65;3.70;;;;;;;20.44;44.66;100385.94;5561725;32;33657;-53
2022/05/03 09:13:16;;;;;;;5.78;3.33;;;;;;;20.51;42.16;100378.00;5563687;32;33357;-53
2022/05/03 09:16:20;;;;;;;5.65;3.80;;;;;;;20.54;42.60;100376.50;5553554;32;33739;-53
2022/05/03 09:19:25;;;;;;;4.68;3.47;;;;;;;20.55;45.44;100378.09;5564202;32;33681;-53
2022/05/03 09:25:49;;;;;;;6.47;3.95;;;;;;;20.60;39.46;100372.41;5567520;32;33648;-53
2022/05/03 09:28:54;;;;;;;8.27;4.30;;;;;;;20.70;42.96;100371.09;5566645;32;33614;-53
2022/05/03 09:31:57;;;;;;;7.78;3.70;;;;;;;20.65;40.41;100359.31;5565209;32;33881;-53
2022/05/03 09:35:00;;;;;;;6.10;3.65;;;;;;;20.67;41.86;100361.69;5565843;32;34135;-53
2022/05/03 09:38:04;;;;;;;16.80;5.78;;;;;;;20.71;42.14;100367.22;5561655;32;34287;-54
2022/05/03 09:41:14;;;;;;;9.77;4.12;;;;;;;20.82;44.04;100369.06;5566793;32;33276;-54
2022/05/03 09:44:16;;;;;;;5.97;4.12;;;;;;;20.96;43.95;100368.69;5566943;32;33315;-53
2022/05/03 09:47:21;;;;;;;13.13;4.15;;;;;;;20.81;39.74;100364.00;5563265;32;33735;-54
2022/05/03 09:50:36;;;;;;;11.07;4.30;;;;;;;20.85;42.11;100354.75;5567863;32;33902;-53
2022/05/03 09:53:56;;;;;;;8.18;3.60;;;;;;;20.97;42.68;100356.63;5564736;32;34329;-53
2022/05/03 09:56:59;;;;;;;8.55;4.12;;;;;;;21.09;37.55;100353.00;5565731;32;33153;-53
2022/05/03 10:00:05;;;;;;;10.73;4.22;;;;;;;21.10;39.14;100355.41;5564523;32;33664;-53
2022/05/03 10:03:14;;;;;;;13.73;5.05;;;;;;;21.07;40.79;100347.16;5563441;32;34112;-53
2022/05/03 10:06:20;;;;;;;6.93;3.92;;;;;;;21.08;42.90;100340.53;5568178;32;33733;-53
2022/05/03 10:09:22;;;;;;;5.03;3.30;;;;;;;21.16;37.47;100342.31;5561852;32;34307;-54
2022/05/03 10:12:25;;;;;;;8.13;3.83;;;;;;;21.16;37.77;100336.03;5556925;32;34823;-53
2022/05/03 10:22:15;;;;;;;11.12;4.30;;;;;;;21.27;37.68;100326.19;5563777;32;34313;-53
2022/05/03 10:25:48;;;;;;;8.93;4.32;;;;;;;21.31;38.99;100327.84;5565898;32;34428;-54
2022/05/03 10:29:07;;;;;;;7.28;4.28;;;;;;;21.43;36.15;100318.81;5567283;31;33620;-53
2022/05/03 10:32:10;;;;;;;8.13;4.40;;;;;;;21.56;33.81;100314.84;5563010;32;33710;-53
2022/05/03 10:35:42;;;;;;;12.75;5.60;;;;;;;21.55;35.20;100318.69;5567601;32;33971;-53
2022/05/03 10:38:46;;;;;;;8.77;4.22;;;;;;;21.64;39.35;100310.31;5553048;31;34063;-54
2022/05/03 10:42:00;;;;;;;9.52;4.20;;;;;;;21.75;34.26;100314.06;5557122;32;33743;-54
2022/05/03 10:45:07;;;;;;;6.40;4.20;;;;;;;21.74;32.89;100311.69;5564345;32;33683;-53
2022/05/03 10:48:25;;;;;;;6.35;3.92;;;;;;;21.73;31.65;100315.59;5565844;32;33900;-53
2022/05/03 10:51:27;;;;;;;6.28;3.35;;;;;;;21.68;31.81;100304.94;5567871;32;33675;-53
2022/05/03 10:55:10;;;;;;;6.75;3.35;;;;;;;21.68;30.69;100311.19;5558233;32;33599;-53
2022/05/03 10:58:19;;;;;;;8.82;3.80;;;;;;;21.60;35.46;100300.50;5565039;32;33675;-53
2022/05/03 11:01:23;;;;;;;10.35;3.75;;;;;;;21.63;36.74;100294.31;5563671;32;33759;-53
2022/05/03 11:04:26;;;;;;;6.22;3.80;;;;;;;21.62;35.16;100304.41;5557917;32;33637;-54
2022/05/03 11:07:30;;;;;;;3.97;3.10;;;;;;;21.39;34.20;100300.78;5567784;32;33821;-53
2022/05/03 11:10:43;;;;;;;5.18;3.70;;;;;;;21.02;34.34;100310.03;5562417;32;33242;-53
2022/05/03 11:13:49;;;;;;;5.28;3.62;;;;;;;20.98;35.96;100306.44;5564620;32;34387;-53
2022/05/03 11:17:08;;;;;;;10.25;4.72;;;;;;;20.81;36.78;100312.22;5566086;32;33774;-53
2022/05/03 11:20:10;;;;;;;6.75;3.80;;;;;;;20.76;39.34;100309.75;5560442;32;32751;-53
2022/05/03 11:23:13;;;;;;;10.82;4.12;;;;;;;20.79;37.24;100300.88;5566266;32;33592;-53
2022/05/03 11:26:18;;;;;;;7.03;4.00;;;;;;;20.73;37.76;100308.53;5566476;32;34473;-53
2022/05/03 11:29:27;;;;;;;18.40;4.25;;;;;;;20.56;37.67;100304.22;5554714;32;33779;-54
2022/05/03 11:32:39;;;;;;;5.75;2.78;;;;;;;20.21;38.53;100311.37;5557861;32;34538;-53
2022/05/03 11:35:43;;;;;;;3.90;3.00;;;;;;;20.11;37.02;100304.50;5565245;32;34329;-53
2022/05/03 11:38:50;;;;;;;6.90;3.40;;;;;;;20.02;38.32;100309.31;5554275;32;33638;-53
2022/05/03 11:41:55;;;;;;;4.70;2.45;;;;;;;19.83;37.93;100318.06;5564873;32;33717;-53
2022/05/03 11:44:58;;;;;;;6.78;2.80;;;;;;;19.75;36.72;100314.34;5565780;32;34446;-56
2022/05/03 11:48:03;;;;;;;12.20;3.33;;;;;;;19.75;38.41;100308.13;5559639;32;33727;-56
2022/05/03 11:57:52;;;;;;;5.00;3.47;;;;;;;19.76;39.00;100312.44;5559722;32;34424;-55
2022/05/03 12:00:55;;;;;;;5.05;2.50;;;;;;;19.75;41.13;100322.53;5563484;32;33725;-56
2022/05/03 12:03:58;;;;;;;9.82;4.35;;;;;;;19.86;40.70;100328.28;5562183;32;33333;-56
2022/05/03 12:07:01;;;;;;;6.82;3.10;;;;;;;19.93;41.78;100320.31;5563314;32;33322;-56
2022/05/03 12:10:26;;;;;;;4.43;2.75;;;;;;;20.04;41.99;100324.16;5553506;32;33727;-56
2022/05/03 12:13:31;;;;;;;4.68;2.50;;;;;;;20.15;41.31;100313.56;5563571;32;33757;-56
2022/05/03 12:16:34;;;;;;;4.45;2.70;;;;;;;20.13;37.31;100297.59;5566179;32;33474;-56
2022/05/03 12:19:38;;;;;;;10.48;4.50;;;;;;;20.17;38.77;100298.47;5561233;32;33703;-56
2022/05/03 12:22:41;;;;;;;4.70;2.80;;;;;;;20.25;45.50;100301.37;5565669;32;33595;-56
2022/05/03 12:25:46;;;;;;;5.18;2.87;;;;;;;20.27;41.83;100296.41;5568523;32;33465;-55
2022/05/03 12:28:52;;;;;;;;;;;;;;;20.32;37.26;100296.12;5566202;32;33721;-56
2022/05/03 12:31:54;;;;;;;5.62;3.10;;;;;;;20.28;38.63;100289.81;5567679;32;34148;-55
2022/05/03 12:34:58;;;;;;;6.72;3.28;;;;;;;20.33;38.99;100289.53;5568480;31;32212;-55
2022/05/03 12:38:16;;;;;;;8.07;3.62;;;;;;;20.46;39.60;100290.28;5567457;32;33688;-56
2022/05/03 12:41:37;;;;;;;9.57;4.03;;;;;;;20.63;39.79;100285.34;5568427;32;33701;-56
2022/05/03 12:44:55;;;;;;;7.15;3.78;;;;;;;20.85;41.44;100278.47;5561088;32;33730;-55
2022/05/03 12:47:58;;;;;;;10.88;4.32;;;;;;;20.94;40.15;100281.03;5560269;32;34940;-55
2022/05/03 12:51:04;;;;;;;8.23;3.42;;;;;;;21.05;41.16;100281.28;5565369;32;34429;-56
2022/05/03 12:54:07;;;;;;;;;;;;;;;20.97;36.75;100271.37;5560388;32;34387;-56
2022/05/03 13:00:36;;;;;;;11.15;4.90;;;;;;;20.96;39.56;100267.03;5568975;32;33639;-56
2022/05/03 13:03:38;;;;;;;7.03;3.53;;;;;;;21.08;38.04;100267.72;5568660;32;34359;-55
2022/05/03 13:06:41;;;;;;;9.70;3.80;;;;;;;21.00;37.40;100263.28;5567908;31;33801;-56
2022/05/03 13:09:44;;;;;;;4.60;3.42;;;;;;;21.07;39.23;100268.88;5568268;32;33796;-56
2022/05/03 13:12:46;;;;;;;6.20;3.95;;;;;;;21.11;37.58;100263.53;5565835;32;33658;-55
2022/05/03 13:15:48;;;;;;;6.43;4.00;;;;;;;21.15;37.82;100253.47;5568239;32;33666;-56
2022/05/03 13:18:51;;;;;;;6.20;3.60;;;;;;;21.18;38.48;100249.25;5565345;32;33747;-55
2022/05/03 13:22:05;;;;;;;6.37;3.62;;;;;;;21.18;37.26;100246.53;5570029;32;33600;-55
2022/05/03 13:25:08;;;;;;;7.65;3.65;;;;;;;21.28;39.65;100254.16;5568520;32;33694;-55
2022/05/03 13:28:10;;;;;;;5.15;3.67;;;;;;;21.30;37.61;100255.41;5564018;31;33733;-56
2022/05/03 13:31:13;;;;;;;5.90;3.70;;;;;;;21.30;37.30;100255.41;5569905;32;34319;-56
2022/05/03 13:34:16;;;;;;;8.80;4.40;;;;;;;21.35;37.56;100259.81;5569884;32;33684;-56
2022/05/03 13:40:39;;;;;;;8.88;4.62;;;;;;;21.43;37.65;100261.56;5568876;32;34348;-57
2022/05/03 13:43:41;;;;;;;8.50;4.03;;;;;;;21.46;39.93;100258.13;5568481;32;33312;-56
2022/05/03 13:46:43;;;;;;;8.02;3.62;;;;;;;21.48;37.71;100253.06;5568623;32;34352;-56
2022/05/03 13:49:47;;;;;;;7.15;3.72;;;;;;;21.52;37.53;100250.44;5566215;32;33752;-55
2022/05/03 13:52:50;;;;;;;7.72;4.35;;;;;;;21.54;38.72;100246.19;5568344;32;34600;-56
2022/05/03 13:55:53;;;;;;;9.55;3.92;;;;;;;21.55;36.19;100242.31;5567817;32;33675;-56
2022/05/03 13:58:55;;;;;;;8.98;4.15;;;;;;;21.66;37.56;100239.06;5567283;31;33912;-56
2022/05/03 14:01:57;;;;;;;12.13;4.15;;;;;;;21.69;39.13;100238.31;5567162;32;33822;-55
2022/05/03 14:05:00;;;;;;;9.30;4.25;;;;;;;21.61;38.50;100237.37;5569039;32;33712;-56
2022/05/03 14:08:02;;;;;;;8.57;5.00;;;;;;;21.62;37.59;100238.16;5568621;32;33857;-56
2022/05/03 14:11:05;;;;;;;14.75;4.75;;;;;;;21.73;38.46;100250.09;5568789;32;33317;-56
2022/05/03 14:14:07;;;;;;;11.30;4.43;;;;;;;21.75;41.18;100256.75;5569238;32;34340;-56
2022/05/03 14:17:09;;;;;;;14.20;4.28;;;;;;;21.63;42.38;100256.91;5567475;32;34321;-55
2022/05/03 14:20:12;;;;;;;9.75;4.00;;;;;;;21.61;42.64;100255.69;5568517;32;33779;-56
2022/05/03 14:23:15;;;;;;;11.80;4.32;;;;;;;21.58;42.51;100265.38;5568253;32;33702;-56
2022/05/03 14:26:17;;;;;;;8.10;3.62;;;;;;;21.55;42.96;100257.91;5568743;31;33643;-56
2022/05/03 14:29:19;;;;;;;10.48;3.75;;;;;;;21.50;41.79;100258.19;5566724;32;33680;-56
2022/05/03 14:32:22;;;;;;;17.15;4.30;;;;;;;21.41;42.23;100266.56;5568258;32;33633;-56
2022/05/03 14:35:25;;;;;;;8.65;3.90;;;;;;;21.40;43.15;100266.94;5564985;32;33952;-57
2022/05/03 14:38:27;;;;;;;6.35;3.75;;;;;;;21.43;41.44;100272.47;5568319;32;33656;-56
2022/05/03 14:41:30;;;;;;;7.10;4.75;;;;;;;21.35;42.06;100273.44;5566265;32;34406;-55
2022/05/03 14:44:32;;;;;;;5.05;3.60;;;;;;;21.32;43.26;100269.47;5567061;32;33786;-56
2022/05/03 14:47:40;;;;;;;16.73;3.92;;;;;;;21.29;43.24;100275.63;5568622;32;33598;-56
2022/05/03 14:50:42;;;;;;;6.12;3.78;;;;;;;21.22;41.68;100271.94;5553809;32;33924;-56
2022/05/03 14:53:44;;;;;;;8.38;3.72;;;;;;;21.12;41.77;100274.09;5549897;32;33620;-56
2022/05/03 15:03:32;;;;;;;8.73;3.42;;;;;;;21.29;42.69;100272.09;5549333;32;33720;-56
2022/05/03 15:06:40;;;;;;;4.05;3.00;;;;;;;21.14;42.46;100279.16;5549833;32;33617;-55
2022/05/03 15:09:42;;;;;;;6.70;3.60;;;;;;;21.10;41.26;100273.63;5549813;32;34312;-56
2022/05/03 15:12:45;;;;;;;12.98;3.20;;;;;;;21.11;42.67;100277.16;5549687;32;33728;-56
2022/05/03 15:15:47;;;;;;;10.52;3.10;;;;;;;21.11;42.75;100290.78;5549676;32;33695;-56
2022/05/03 15:18:50;;;;;;;9.50;3.22;;;;;;;21.09;41.97;100285.69;5549498;32;33521;-56
2022/05/03 15:21:52;;;;;;;8.93;3.90;;;;;;;21.20;42.75;100282.41;5549704;32;34301;-56
2022/05/03 15:24:55;;;;;;;7.35;2.78;;;;;;;21.16;44.52;100282.34;5549541;32;34403;-56
